createdAt,value
2018-07-05T00:01:33.691Z,16.68
2018-07-05T00:04:14.458Z,16.66
2018-07-05T00:06:55.649Z,16.63
2018-07-05T00:09:36.840Z,16.59
2018-07-05T00:12:18.258Z,16.56
2018-07-05T00:14:58.708Z,16.49
2018-07-05T00:17:39.753Z,16.46
2018-07-05T00:20:22.125Z,16.47
2018-07-05T00:23:03.542Z,16.51
2018-07-05T00:25:44.930Z,16.56
2018-07-05T00:28:26.176Z,16.56
2018-07-05T00:31:07.138Z,16.56
2018-07-05T00:33:48.554Z,16.54
2018-07-05T00:36:30.275Z,16.50
2018-07-05T00:39:11.852Z,16.47
2018-07-05T00:41:53.242Z,16.44
2018-07-05T00:44:34.468Z,16.41
2018-07-05T00:47:16.005Z,16.33
2018-07-05T00:49:57.244Z,16.32
2018-07-05T00:52:38.598Z,16.26
2018-07-05T00:55:20.153Z,16.22
2018-07-05T00:58:01.350Z,16.17
2018-07-05T01:00:42.728Z,16.14
2018-07-05T01:03:23.777Z,16.04
2018-07-05T01:06:05.140Z,16.00
2018-07-05T01:08:46.620Z,16.01
2018-07-05T01:11:27.962Z,15.98
2018-07-05T01:14:08.874Z,15.99
2018-07-05T01:16:50.350Z,15.95
2018-07-05T01:19:31.243Z,15.96
2018-07-05T01:22:11.927Z,15.97
2018-07-05T01:24:53.166Z,15.99
2018-07-05T01:27:37.199Z,15.93
2018-07-05T01:30:19.693Z,15.91
2018-07-05T01:33:00.777Z,15.93
2018-07-05T01:35:42.293Z,15.93
2018-07-05T01:38:23.140Z,15.90
2018-07-05T01:41:04.418Z,15.88
2018-07-05T01:43:45.834Z,15.86
2018-07-05T01:46:26.878Z,15.85
2018-07-05T01:49:08.251Z,15.83
2018-07-05T01:51:49.658Z,15.82
2018-07-05T01:54:30.884Z,15.76
2018-07-05T01:57:12.010Z,15.69
2018-07-05T01:59:53.216Z,15.65
2018-07-05T02:02:34.367Z,15.63
2018-07-05T02:05:15.674Z,15.62
2018-07-05T02:07:56.975Z,15.59
2018-07-05T02:10:38.526Z,15.50
2018-07-05T02:13:19.919Z,15.45
2018-07-05T02:16:01.340Z,15.44
2018-07-05T02:18:42.047Z,15.43
2018-07-05T02:21:23.246Z,15.44
2018-07-05T02:24:04.232Z,15.40
2018-07-05T02:26:45.609Z,15.32
2018-07-05T02:29:26.395Z,15.35
2018-07-05T02:32:07.557Z,15.36
2018-07-05T02:34:48.527Z,15.32
2018-07-05T02:37:34.833Z,15.30
2018-07-05T02:40:15.292Z,15.28
2018-07-05T02:42:56.377Z,15.23
2018-07-05T02:45:37.602Z,15.22
2018-07-05T02:48:18.629Z,15.22
2018-07-05T02:50:59.636Z,15.20
2018-07-05T02:53:41.050Z,15.18
2018-07-05T02:56:21.930Z,15.17
2018-07-05T02:59:03.277Z,15.17
2018-07-05T03:01:44.696Z,15.18
2018-07-05T03:04:26.233Z,15.16
2018-07-05T03:07:07.442Z,15.15
2018-07-05T03:09:48.978Z,15.15
2018-07-05T03:12:30.229Z,15.16
2018-07-05T03:15:11.301Z,15.16
2018-07-05T03:17:53.098Z,15.15
2018-07-05T03:20:33.711Z,15.15
2018-07-05T03:23:14.907Z,15.17
2018-07-05T03:25:55.850Z,15.17
2018-07-05T03:28:36.949Z,15.20
2018-07-05T03:31:17.737Z,15.20
2018-07-05T03:33:58.927Z,15.21
2018-07-05T03:36:40.300Z,15.18
2018-07-05T03:39:20.945Z,15.18
2018-07-05T03:42:02.280Z,15.20
2018-07-05T03:44:43.721Z,15.21
2018-07-05T03:47:24.947Z,15.26
2018-07-05T03:50:06.495Z,15.21
2018-07-05T03:52:47.474Z,15.18
2018-07-05T03:55:28.752Z,15.19
2018-07-05T03:58:10.085Z,15.17
2018-07-05T04:00:51.164Z,15.19
2018-07-05T04:03:32.580Z,15.21
2018-07-05T04:06:13.500Z,15.19
2018-07-05T04:08:54.764Z,15.13
2018-07-05T04:11:35.812Z,15.18
2018-07-05T04:14:17.320Z,15.21
2018-07-05T04:16:58.299Z,15.25
2018-07-05T04:19:44.815Z,15.16
2018-07-05T04:22:25.833Z,15.19
2018-07-05T04:25:07.337Z,15.22
2018-07-05T04:27:47.993Z,15.25
2018-07-05T04:30:28.838Z,15.32
2018-07-05T04:33:10.019Z,15.33
2018-07-05T04:35:50.840Z,15.37
2018-07-05T04:38:32.290Z,15.46
2018-07-05T04:41:13.814Z,15.49
2018-07-05T04:43:55.202Z,15.49
2018-07-05T04:46:36.008Z,15.48
2018-07-05T04:49:17.576Z,15.54
2018-07-05T04:51:58.485Z,15.61
2018-07-05T04:54:39.791Z,15.68
2018-07-05T04:57:21.323Z,15.73
2018-07-05T05:00:02.711Z,15.74
2018-07-05T05:02:43.594Z,15.81
2018-07-05T05:05:24.520Z,15.86
2018-07-05T05:08:05.628Z,15.88
2018-07-05T05:10:46.407Z,15.88
2018-07-05T05:13:27.832Z,15.95
2018-07-05T05:16:09.250Z,16.03
2018-07-05T05:18:50.178Z,16.13
2018-07-05T05:21:31.168Z,16.20
2018-07-05T05:24:12.338Z,16.27
2018-07-05T05:26:53.497Z,16.37
2018-07-05T05:29:35.076Z,16.47
2018-07-05T05:32:16.456Z,16.55
2018-07-05T05:34:57.684Z,16.65
2018-07-05T05:37:39.225Z,16.78
2018-07-05T05:40:20.609Z,16.86
2018-07-05T05:43:01.581Z,16.96
2018-07-05T05:45:42.487Z,17.09
2018-07-05T05:48:23.522Z,17.21
2018-07-05T05:51:04.929Z,17.31
2018-07-05T05:53:46.165Z,17.41
2018-07-05T05:56:27.678Z,17.49
2018-07-05T05:59:09.077Z,17.60
2018-07-05T06:01:50.467Z,17.71
2018-07-05T06:04:31.682Z,17.76
2018-07-05T06:07:12.138Z,17.87
2018-07-05T06:09:53.799Z,17.96
2018-07-05T06:12:35.028Z,18.04
2018-07-05T06:15:16.598Z,18.13
2018-07-05T06:17:57.951Z,18.20
2018-07-05T06:20:38.895Z,18.26
2018-07-05T06:23:20.207Z,18.31
2018-07-05T06:26:01.276Z,18.34
2018-07-05T06:28:41.951Z,18.37
2018-07-05T06:31:23.298Z,18.47
2018-07-05T06:34:04.265Z,18.56
2018-07-05T06:36:45.195Z,18.63
2018-07-05T06:39:26.432Z,18.69
2018-07-05T06:42:07.457Z,18.75
2018-07-05T06:44:48.930Z,18.84
2018-07-05T06:47:30.255Z,18.88
2018-07-05T06:50:11.293Z,18.92
2018-07-05T06:52:52.547Z,18.98
2018-07-05T06:55:33.209Z,19.08
2018-07-05T06:58:14.630Z,19.18
2018-07-05T07:00:56.024Z,19.28
2018-07-05T07:03:37.398Z,19.30
2018-07-05T07:06:18.635Z,19.39
2018-07-05T07:08:59.999Z,19.45
2018-07-05T07:11:41.088Z,19.51
2018-07-05T07:14:22.736Z,19.59
2018-07-05T07:17:04.325Z,19.67
2018-07-05T07:19:45.489Z,19.74
2018-07-05T07:22:27.025Z,19.89
2018-07-05T07:25:07.877Z,20.01
2018-07-05T07:27:49.041Z,20.08
2018-07-05T07:30:30.431Z,20.14
2018-07-05T07:33:11.377Z,20.26
2018-07-05T07:35:52.065Z,20.36
2018-07-05T07:38:33.197Z,20.47
2018-07-05T07:41:13.920Z,20.56
2018-07-05T07:43:42.499Z,20.68
2018-07-05T07:46:11.846Z,20.77
2018-07-05T07:48:40.792Z,20.84
2018-07-05T07:51:09.324Z,20.86
2018-07-05T07:53:38.161Z,20.89
2018-07-05T07:56:07.276Z,20.96
2018-07-05T07:58:36.221Z,21.04
2018-07-05T08:01:04.882Z,21.15
2018-07-05T08:03:34.010Z,21.26
2018-07-05T08:06:03.231Z,21.33
2018-07-05T08:08:31.875Z,21.38
2018-07-05T08:11:00.883Z,21.49
2018-07-05T08:13:29.979Z,21.64
2018-07-05T08:15:58.809Z,21.76
2018-07-05T08:18:27.907Z,21.80
2018-07-05T08:20:57.338Z,21.82
2018-07-05T08:23:26.517Z,21.93
2018-07-05T08:25:55.605Z,22.01
2018-07-05T08:28:24.550Z,22.13
2018-07-05T08:30:53.375Z,22.32
2018-07-05T08:33:22.467Z,22.45
2018-07-05T08:35:51.415Z,22.54
2018-07-05T08:38:20.030Z,22.58
2018-07-05T08:40:48.976Z,22.71
2018-07-05T08:43:17.890Z,22.78
2018-07-05T08:45:47.167Z,22.82
2018-07-05T08:48:16.243Z,22.86
2018-07-05T08:50:45.354Z,22.91
2018-07-05T08:53:14.045Z,23.00
2018-07-05T08:55:42.532Z,23.10
2018-07-05T08:58:11.827Z,23.22
2018-07-05T09:00:40.772Z,23.31
2018-07-05T09:03:09.895Z,23.32
2018-07-05T09:05:38.941Z,23.45
2018-07-05T09:08:07.777Z,23.51
2018-07-05T09:10:36.848Z,23.58
2018-07-05T09:13:06.110Z,23.81
2018-07-05T09:15:35.017Z,24.07
2018-07-05T09:18:04.081Z,24.22
2018-07-05T09:20:32.718Z,24.25
2018-07-05T09:23:01.954Z,24.36
2018-07-05T09:25:31.061Z,24.39
2018-07-05T09:28:00.132Z,24.44
2018-07-05T09:30:28.852Z,24.50
2018-07-05T09:32:57.917Z,24.55
2018-07-05T09:35:26.868Z,24.65
2018-07-05T09:37:55.701Z,24.69
2018-07-05T09:40:24.399Z,24.62
2018-07-05T09:42:52.980Z,24.61
2018-07-05T09:45:22.198Z,24.65
2018-07-05T09:47:51.106Z,24.62
2018-07-05T09:50:19.732Z,24.63
2018-07-05T09:52:48.688Z,24.60
2018-07-05T09:55:17.581Z,24.60
2018-07-05T09:57:46.451Z,24.65
2018-07-05T10:00:15.433Z,24.67
2018-07-05T10:02:44.649Z,24.67
2018-07-05T10:05:13.298Z,24.74
2018-07-05T10:07:42.037Z,24.81
2018-07-05T10:10:10.712Z,24.98
2018-07-05T10:12:39.639Z,25.08
2018-07-05T10:15:08.801Z,25.15
2018-07-05T10:17:37.893Z,25.26
2018-07-05T10:20:06.917Z,25.30
2018-07-05T10:22:35.727Z,25.40
2018-07-05T10:25:04.877Z,25.43
2018-07-05T10:27:33.569Z,25.51
2018-07-05T10:30:14.509Z,25.61
2018-07-05T10:32:55.964Z,25.72
2018-07-05T10:35:24.927Z,25.77
2018-07-05T10:37:57.326Z,25.87
2018-07-05T10:40:38.877Z,25.96
2018-07-05T10:43:19.754Z,26.08
2018-07-05T10:46:01.175Z,26.11
2018-07-05T10:48:42.551Z,26.17
2018-07-05T10:51:23.741Z,26.19
2018-07-05T10:54:05.295Z,26.23
2018-07-05T10:56:46.467Z,26.29
2018-07-05T10:59:27.656Z,26.39
2018-07-05T11:02:08.886Z,26.56
2018-07-05T11:04:49.775Z,26.54
2018-07-05T11:07:31.406Z,26.54
2018-07-05T11:10:12.633Z,26.65
2018-07-05T11:12:53.754Z,26.56
2018-07-05T11:15:35.002Z,26.61
2018-07-05T11:18:16.538Z,26.62
2018-07-05T11:20:57.931Z,26.68
2018-07-05T11:23:39.293Z,26.71
2018-07-05T11:26:20.270Z,26.82
2018-07-05T11:29:01.667Z,26.82
2018-07-05T11:31:42.231Z,26.88
2018-07-05T11:34:23.612Z,26.95
2018-07-05T11:37:05.001Z,27.07
2018-07-05T11:39:45.893Z,27.22
2018-07-05T11:42:27.242Z,27.30
2018-07-05T11:45:08.345Z,27.33
2018-07-05T11:47:49.772Z,27.36
2018-07-05T11:50:30.996Z,27.46
2018-07-05T11:53:12.860Z,27.47
2018-07-05T11:55:54.285Z,27.59
2018-07-05T11:58:35.713Z,27.60
2018-07-05T12:01:16.881Z,27.57
2018-07-05T12:03:58.285Z,27.57
2018-07-05T12:06:39.378Z,27.60
2018-07-05T12:09:20.809Z,27.67
2018-07-05T12:12:02.196Z,27.54
2018-07-05T12:14:43.108Z,27.44
2018-07-05T12:17:24.746Z,27.54
2018-07-05T12:20:06.344Z,27.68
2018-07-05T12:22:46.945Z,27.69
2018-07-05T12:25:27.863Z,27.75
2018-07-05T12:28:08.853Z,27.89
2018-07-05T12:30:49.820Z,28.01
2018-07-05T12:33:31.057Z,28.11
2018-07-05T12:36:12.446Z,28.31
2018-07-05T12:38:53.824Z,28.50
2018-07-05T12:41:34.964Z,28.61
2018-07-05T12:44:16.350Z,28.63
2018-07-05T12:46:57.732Z,28.62
2018-07-05T12:49:38.950Z,28.69
2018-07-05T12:52:19.429Z,28.71
2018-07-05T12:55:01.478Z,28.73
2018-07-05T12:57:42.861Z,28.80
2018-07-05T13:00:24.074Z,28.69
2018-07-05T13:03:04.813Z,28.70
2018-07-05T13:05:45.569Z,28.64
2018-07-05T13:08:27.140Z,28.74
2018-07-05T13:11:08.559Z,28.81
2018-07-05T13:13:49.760Z,28.94
2018-07-05T13:16:31.321Z,29.02
2018-07-05T13:19:12.634Z,29.09
2018-07-05T13:21:54.090Z,28.96
2018-07-05T13:24:35.075Z,29.03
2018-07-05T13:27:16.290Z,29.08
2018-07-05T13:29:57.695Z,29.21
2018-07-05T13:32:39.071Z,29.41
2018-07-05T13:35:20.025Z,29.60
2018-07-05T13:38:01.179Z,29.91
2018-07-05T13:40:42.361Z,29.96
2018-07-05T13:43:23.826Z,29.66
2018-07-05T13:46:05.197Z,29.29
2018-07-05T13:48:45.807Z,28.68
2018-07-05T13:51:27.594Z,27.71
2018-07-05T13:54:08.636Z,26.91
2018-07-05T13:56:49.457Z,26.27
2018-07-05T13:59:31.031Z,25.92
2018-07-05T14:02:12.312Z,25.80
2018-07-05T14:04:53.595Z,25.91
2018-07-05T14:07:34.669Z,25.71
2018-07-05T14:10:15.610Z,25.69
2018-07-05T14:12:57.541Z,25.83
2018-07-05T14:15:38.167Z,25.99
2018-07-05T14:18:20.825Z,26.16
2018-07-05T14:21:02.123Z,26.99
2018-07-05T14:23:43.385Z,27.67
2018-07-05T14:26:24.458Z,28.06
2018-07-05T14:29:06.106Z,28.61
2018-07-05T14:31:47.226Z,29.17
2018-07-05T14:34:28.570Z,29.57
2018-07-05T14:37:09.598Z,29.61
2018-07-05T14:39:50.979Z,29.45
2018-07-05T14:42:32.267Z,29.63
2018-07-05T14:45:13.759Z,29.43
2018-07-05T14:47:54.287Z,29.17
2018-07-05T14:50:35.710Z,29.80
2018-07-05T14:53:16.440Z,30.21
2018-07-05T14:55:58.064Z,30.71
2018-07-05T14:58:39.429Z,30.99
2018-07-05T15:01:20.640Z,30.67
2018-07-05T15:04:01.279Z,30.16
2018-07-05T15:06:42.781Z,29.93
2018-07-05T15:09:23.578Z,29.68
2018-07-05T15:12:04.968Z,29.76
2018-07-05T15:14:46.115Z,29.76
2018-07-05T15:17:28.239Z,29.93
2018-07-05T15:20:09.279Z,29.89
2018-07-05T15:22:50.441Z,29.46
2018-07-05T15:25:31.667Z,29.11
2018-07-05T15:28:12.870Z,29.02
2018-07-05T15:30:54.423Z,29.10
2018-07-05T15:33:35.404Z,29.08
2018-07-05T15:36:16.759Z,28.56
2018-07-05T15:38:58.174Z,27.68
2018-07-05T15:41:39.404Z,27.02
2018-07-05T15:44:20.933Z,26.77
2018-07-05T15:47:01.926Z,26.89
2018-07-05T15:49:43.155Z,27.13
2018-07-05T15:52:24.286Z,27.12
2018-07-05T15:55:05.501Z,26.56
2018-07-05T15:57:47.066Z,26.28
2018-07-05T16:00:28.272Z,26.05
2018-07-05T16:03:09.820Z,25.82
2018-07-05T16:05:51.046Z,25.93
2018-07-05T16:08:32.173Z,26.18
2018-07-05T16:11:13.540Z,26.18
2018-07-05T16:13:54.798Z,26.40
2018-07-05T16:16:36.266Z,26.38
2018-07-05T16:19:17.701Z,26.19
2018-07-05T16:21:58.669Z,26.13
2018-07-05T16:24:39.969Z,26.07
2018-07-05T16:27:20.954Z,25.93
2018-07-05T16:30:02.034Z,25.68
2018-07-05T16:32:43.414Z,25.53
2018-07-05T16:35:24.760Z,25.60
2018-07-05T16:38:06.030Z,25.65
2018-07-05T16:40:47.167Z,25.59
2018-07-05T16:43:28.311Z,25.43
2018-07-05T16:46:09.316Z,25.29
2018-07-05T16:48:50.702Z,25.21
2018-07-05T16:51:32.080Z,25.05
2018-07-05T16:54:13.057Z,24.94
2018-07-05T16:56:54.033Z,24.86
2018-07-05T16:59:35.402Z,24.93
2018-07-05T17:02:16.327Z,25.01
2018-07-05T17:04:57.266Z,24.98
2018-07-05T17:07:38.606Z,24.87
2018-07-05T17:10:19.695Z,24.89
2018-07-05T17:13:01.174Z,24.88
2018-07-05T17:15:42.413Z,24.90
2018-07-05T17:18:23.916Z,24.87
2018-07-05T17:21:05.107Z,24.74
2018-07-05T17:23:46.096Z,24.64
2018-07-05T17:26:26.763Z,24.61
2018-07-05T17:29:08.196Z,24.54
2018-07-05T17:31:49.599Z,24.38
2018-07-05T17:34:30.801Z,24.15
2018-07-05T17:37:12.186Z,24.06
2018-07-05T17:39:53.622Z,24.02
2018-07-05T17:42:34.304Z,23.94
2018-07-05T17:45:15.513Z,23.74
2018-07-05T17:47:57.069Z,23.58
2018-07-05T17:50:38.041Z,23.57
2018-07-05T17:53:19.016Z,23.44
2018-07-05T17:56:00.008Z,23.38
2018-07-05T17:58:42.087Z,23.38
2018-07-05T18:01:23.431Z,23.33
2018-07-05T18:04:04.974Z,23.27
2018-07-05T18:06:46.210Z,23.23
2018-07-05T18:09:27.335Z,23.26
2018-07-05T18:12:08.307Z,23.25
2018-07-05T18:14:49.060Z,23.19
2018-07-05T18:17:30.675Z,23.16
2018-07-05T18:20:11.914Z,23.10
2018-07-05T18:22:53.444Z,23.04
2018-07-05T18:25:34.814Z,23.01
2018-07-05T18:28:15.633Z,22.88
2018-07-05T18:30:57.178Z,22.81
2018-07-05T18:33:38.397Z,22.72
2018-07-05T18:36:19.451Z,22.68
2018-07-05T18:39:00.360Z,22.61
2018-07-05T18:41:41.760Z,22.51
2018-07-05T18:44:22.714Z,22.44
2018-07-05T18:47:03.876Z,22.43
2018-07-05T18:49:44.670Z,22.35
2018-07-05T18:52:26.058Z,22.27
2018-07-05T18:55:07.597Z,22.19
2018-07-05T18:57:48.500Z,22.09
2018-07-05T19:00:29.905Z,22.03
2018-07-05T19:03:10.456Z,21.95
2018-07-05T19:05:51.915Z,21.88
2018-07-05T19:08:33.315Z,21.87
2018-07-05T19:11:14.525Z,21.83
2018-07-05T19:13:55.648Z,21.82
2018-07-05T19:16:37.784Z,21.74
2018-07-05T19:19:19.235Z,21.58
2018-07-05T19:22:00.218Z,21.57
2018-07-05T19:24:41.373Z,21.54
2018-07-05T19:27:22.399Z,21.47
2018-07-05T19:30:03.972Z,21.43
2018-07-05T19:32:45.324Z,21.33
2018-07-05T19:35:26.629Z,21.28
2018-07-05T19:38:07.638Z,21.28
2018-07-05T19:40:48.979Z,21.26
2018-07-05T19:43:30.481Z,21.22
2018-07-05T19:46:11.417Z,21.19
2018-07-05T19:48:52.674Z,21.16
2018-07-05T19:51:33.791Z,21.06
2018-07-05T19:54:14.683Z,21.00
2018-07-05T19:56:56.174Z,21.00
2018-07-05T19:59:37.558Z,21.01
2018-07-05T20:02:18.945Z,20.97
2018-07-05T20:05:00.167Z,20.93
2018-07-05T20:07:41.717Z,20.91
2018-07-05T20:10:22.982Z,20.89
2018-07-05T20:13:04.757Z,20.90
2018-07-05T20:15:45.819Z,20.89
2018-07-05T20:18:26.847Z,20.84
2018-07-05T20:21:07.461Z,20.83
2018-07-05T20:23:49.043Z,20.79
2018-07-05T20:26:30.834Z,20.78
2018-07-05T20:29:12.021Z,20.76
2018-07-05T20:31:53.299Z,20.74
2018-07-05T20:34:34.738Z,20.72
2018-07-05T20:37:16.129Z,20.67
2018-07-05T20:39:57.106Z,20.67
2018-07-05T20:42:38.481Z,20.64
2018-07-05T20:45:19.875Z,20.65
2018-07-05T20:48:01.113Z,20.65
2018-07-05T20:50:42.644Z,20.65
2018-07-05T20:53:23.883Z,20.61
2018-07-05T20:56:05.417Z,20.61
2018-07-05T20:58:46.749Z,20.60
2018-07-05T21:01:28.142Z,20.61
2018-07-05T21:04:09.548Z,20.61
2018-07-05T21:06:50.822Z,20.60
2018-07-05T21:09:32.177Z,20.61
2018-07-05T21:12:13.716Z,20.61
2018-07-05T21:14:54.730Z,20.58
2018-07-05T21:17:35.671Z,20.56
2018-07-05T21:20:17.058Z,20.55
2018-07-05T21:22:58.313Z,20.49
2018-07-05T21:25:39.420Z,20.48
2018-07-05T21:28:20.705Z,20.47
2018-07-05T21:31:02.037Z,20.45
2018-07-05T21:33:43.417Z,20.42
2018-07-05T21:36:24.399Z,20.35
2018-07-05T21:39:05.904Z,20.32
2018-07-05T21:41:47.323Z,20.27
2018-07-05T21:44:29.031Z,20.25
2018-07-05T21:47:10.328Z,20.23
2018-07-05T21:49:51.701Z,20.22
2018-07-05T21:52:33.276Z,20.19
2018-07-05T21:55:13.634Z,20.19
2018-07-05T21:57:55.227Z,20.17
2018-07-05T22:00:36.973Z,20.13
2018-07-05T22:03:18.318Z,20.15
2018-07-05T22:05:59.379Z,20.13
2018-07-05T22:08:40.289Z,20.05
2018-07-05T22:11:21.733Z,20.05
2018-07-05T22:14:02.496Z,20.06
2018-07-05T22:16:49.827Z,20.02
2018-07-05T22:19:35.700Z,20.00
2018-07-05T22:22:21.608Z,19.95
2018-07-05T22:25:07.888Z,19.92
2018-07-05T22:27:53.683Z,19.77
2018-07-05T22:30:39.600Z,19.64
2018-07-05T22:33:21.489Z,19.57
2018-07-05T22:36:02.022Z,19.56
2018-07-05T22:38:43.246Z,19.48
2018-07-05T22:41:24.003Z,19.43
2018-07-05T22:44:05.234Z,19.46
2018-07-05T22:46:46.282Z,19.47
2018-07-05T22:49:27.400Z,19.43
2018-07-05T22:52:08.520Z,19.38
2018-07-05T22:54:49.489Z,19.36
2018-07-05T22:57:30.841Z,19.37
2018-07-05T23:00:11.876Z,19.34
2018-07-05T23:02:53.170Z,19.35
2018-07-05T23:05:34.159Z,19.33
2018-07-05T23:08:15.015Z,19.28
2018-07-05T23:10:56.076Z,19.25
2018-07-05T23:13:37.545Z,19.22
2018-07-05T23:16:18.510Z,19.22
2018-07-05T23:18:59.890Z,19.20
2018-07-05T23:21:40.878Z,19.20
2018-07-05T23:24:22.273Z,19.19
2018-07-05T23:27:03.965Z,19.15
2018-07-05T23:29:44.856Z,19.11
2018-07-05T23:32:25.855Z,19.03
2018-07-05T23:35:07.398Z,19.01
2018-07-05T23:37:48.638Z,18.99
2018-07-05T23:40:30.175Z,19.01
2018-07-05T23:43:11.555Z,19.02
2018-07-05T23:45:52.372Z,19.00
2018-07-05T23:48:33.947Z,18.99
2018-07-05T23:51:15.222Z,19.00
2018-07-05T23:53:57.095Z,18.99
2018-07-05T23:56:37.983Z,18.96
2018-07-05T23:59:19.300Z,18.96
